Time;durP1;ratioP1;P1;durP2;ratioP2;P2;SDS_P1;SDS_P2;PMS_P1;PMS_P2;Temp;Humidity;BMP_temperature;BMP_pressure;BME280_temperature;BME280_humidity;BME280_pressure;Samples;Min_cycle;Max_cycle;Signal;HPM_P1;HPM_P2
2022/01/15 00:00:13;;;;;;;35.22;17.45;;;;;;;1.28;81.81;100745.94;5014139;28;20025;-78
2022/01/15 00:02:39;;;;;;;28.88;18.67;;;;;;;1.23;81.25;100726.78;5015535;28;20072;-76
2022/01/15 00:05:05;;;;;;;25.77;18.90;;;;;;;1.35;81.41;100740.22;5012657;28;20045;-71
2022/01/15 00:07:30;;;;;;;28.80;18.33;;;;;;;1.38;80.73;100727.44;5015700;28;20030;-71
2022/01/15 00:09:56;;;;;;;26.55;17.05;;;;;;;1.64;79.82;100749.22;5016503;28;20095;-71
2022/01/15 00:12:22;;;;;;;28.30;18.48;;;;;;;1.60;79.61;100733.50;5014925;28;20496;-71
2022/01/15 00:14:48;;;;;;;24.08;18.05;;;;;;;1.61;78.93;100735.25;5014778;28;20091;-73
2022/01/15 00:17:21;;;;;;;22.63;16.92;;;;;;;1.62;79.37;100745.66;5017175;28;20038;-74
2022/01/15 00:19:47;;;;;;;28.25;19.52;;;;;;;1.54;79.45;100747.03;5044566;28;20072;-73
2022/01/15 00:22:18;;;;;;;20.60;15.88;;;;;;;1.71;78.54;100750.34;5025618;28;20117;-71
2022/01/15 00:24:45;;;;;;;27.55;17.77;;;;;;;1.36;79.31;100754.94;5010283;28;20052;-72
2022/01/15 00:27:10;;;;;;;25.88;17.60;;;;;;;1.32;80.01;100759.91;5013122;28;20485;-76
2022/01/15 00:29:37;;;;;;;22.92;16.77;;;;;;;0.90;80.81;100739.13;5012992;28;20026;-72
2022/01/15 00:32:04;;;;;;;31.65;20.05;;;;;;;0.82;81.37;100768.09;5011749;28;20050;-74
2022/01/15 00:34:30;;;;;;;28.58;19.52;;;;;;;0.73;81.26;100741.84;5012978;28;20592;-73
2022/01/15 00:36:55;;;;;;;35.80;22.08;;;;;;;0.88;81.79;100772.63;5013302;28;21261;-72
2022/01/15 00:39:22;;;;;;;29.95;21.52;;;;;;;1.11;81.09;100770.19;5011538;28;20120;-71
2022/01/15 00:41:48;;;;;;;34.92;23.45;;;;;;;0.95;80.92;100773.78;5013617;28;20080;-70
2022/01/15 00:44:14;;;;;;;28.02;20.10;;;;;;;0.99;80.87;100773.13;5011883;28;20120;-71
2022/01/15 00:46:39;;;;;;;19.35;14.32;;;;;;;0.97;81.02;100772.16;5011962;28;20396;-70
2022/01/15 00:49:05;;;;;;;19.52;11.93;;;;;;;0.74;80.04;100751.34;5013957;28;20045;-71
2022/01/15 00:51:30;;;;;;;23.88;14.77;;;;;;;1.11;79.85;100786.56;5014132;28;20056;-73
2022/01/15 00:53:56;;;;;;;23.05;13.90;;;;;;;0.85;80.31;100780.25;5000970;28;20030;-74
2022/01/15 00:56:21;;;;;;;28.70;15.48;;;;;;;0.63;80.94;100787.03;5000158;28;20049;-71
2022/01/15 00:58:46;;;;;;;25.10;18.05;;;;;;;0.61;80.89;100768.00;5001031;28;20038;-79
2022/01/15 01:01:12;;;;;;;24.15;15.68;;;;;;;0.67;80.69;100757.06;5001450;28;20091;-71
2022/01/15 01:03:37;;;;;;;19.98;13.75;;;;;;;0.64;80.87;100780.16;4999855;28;20060;-76
2022/01/15 01:06:03;;;;;;;19.17;13.95;;;;;;;0.83;80.91;100780.16;4999963;28;20112;-71
2022/01/15 01:08:28;;;;;;;30.25;15.70;;;;;;;0.64;80.98;100754.34;5000586;28;20074;-71
2022/01/15 01:10:59;;;;;;;23.50;13.90;;;;;;;0.55;80.81;100772.88;5001125;28;20454;-70
2022/01/15 01:20:03;;;;;;;23.90;15.60;;;;;;;0.59;81.30;100777.38;4999957;28;20056;-73
2022/01/15 01:24:25;;;;;;;20.80;13.27;;;;;;;0.46;80.84;100772.44;4998215;28;21421;-71
2022/01/15 01:27:43;;;;;;;25.00;14.48;;;;;;;0.33;82.03;100785.59;4996015;28;20473;-72
2022/01/15 01:33:03;;;;;;;23.75;16.95;;;;;;;0.61;81.50;100798.97;5018260;28;20057;-75
2022/01/15 01:35:09;;;;;;;21.95;13.20;;;;;;;0.64;80.49;100785.31;5013919;28;20543;-73
2022/01/15 01:37:39;;;;;;;18.60;14.02;;;;;;;0.46;80.56;100780.19;5019709;28;20445;-71
2022/01/15 01:40:36;;;;;;;21.13;15.13;;;;;;;0.59;81.17;100816.09;5017541;28;20068;-71
2022/01/15 01:43:16;;;;;;;22.67;13.30;;;;;;;0.58;81.01;100816.00;5017209;28;20069;-71
2022/01/15 01:45:45;;;;;;;20.70;12.90;;;;;;;0.40;80.82;100798.88;5018812;28;20053;-75
2022/01/15 01:48:10;;;;;;;20.98;13.30;;;;;;;0.72;80.57;100819.25;5018949;28;20044;-73
2022/01/15 01:50:36;;;;;;;23.65;13.07;;;;;;;0.66;80.47;100806.94;5019011;28;20025;-74
2022/01/15 01:53:02;;;;;;;16.60;13.48;;;;;;;0.37;81.08;100805.56;5020380;28;20069;-71
2022/01/15 01:55:31;;;;;;;21.85;15.43;;;;;;;0.78;80.59;100827.28;5018977;28;20037;-71
2022/01/15 01:57:58;;;;;;;21.40;12.70;;;;;;;0.73;80.72;100824.50;5018853;28;20057;-72
2022/01/15 02:00:25;;;;;;;25.73;13.30;;;;;;;0.79;81.30;100826.47;5018669;28;20481;-71
2022/01/15 02:02:53;;;;;;;17.50;12.80;;;;;;;1.09;77.91;100815.75;5019621;28;20032;-71
2022/01/15 02:05:19;;;;;;;26.05;14.02;;;;;;;1.23;76.70;100812.94;5017341;28;20516;-71
2022/01/15 02:07:45;;;;;;;12.23;8.15;;;;;;;1.53;74.55;100837.50;5019412;28;20073;-78
2022/01/15 02:10:14;;;;;;;20.27;11.88;;;;;;;1.34;76.35;100843.56;5020455;28;20037;-71
2022/01/15 02:12:40;;;;;;;16.73;9.05;;;;;;;1.47;75.90;100857.13;5019229;28;20091;-72
2022/01/15 02:15:11;;;;;;;18.67;12.05;;;;;;;1.74;74.19;100863.41;5018568;28;20029;-71
2022/01/15 02:17:37;;;;;;;17.67;11.30;;;;;;;1.74;73.21;100834.97;5018268;28;20048;-72
2022/01/15 02:25:49;;;;;;;13.23;9.40;;;;;;;1.56;74.83;100858.31;5013730;28;20048;-76
2022/01/15 02:28:18;;;;;;;14.35;9.13;;;;;;;1.24;76.25;100839.69;5019303;28;20042;-71
2022/01/15 02:30:43;;;;;;;15.63;9.25;;;;;;;1.36;75.46;100866.09;5017848;28;20103;-76
2022/01/15 02:33:09;;;;;;;17.33;10.40;;;;;;;1.38;75.87;100859.28;5019951;28;20061;-71
2022/01/15 02:35:35;;;;;;;15.02;10.45;;;;;;;1.21;75.76;100865.41;5018431;28;20126;-70
2022/01/15 02:38:12;;;;;;;19.00;12.85;;;;;;;1.30;76.08;100877.84;5019983;28;20050;-71
2022/01/15 02:40:40;;;;;;;15.07;12.05;;;;;;;1.16;76.03;100860.03;5018344;28;20532;-72
2022/01/15 02:43:12;;;;;;;24.02;11.77;;;;;;;1.19;76.58;100887.69;5018644;28;20096;-71
2022/01/15 02:45:42;;;;;;;15.82;11.63;;;;;;;1.16;76.69;100887.56;5019379;28;20127;-71
2022/01/15 02:48:15;;;;;;;19.65;15.02;;;;;;;1.11;77.38;100894.22;5018609;28;20033;-71
2022/01/15 02:50:42;;;;;;;32.83;15.93;;;;;;;1.11;77.52;100896.81;5016999;28;20187;-73
2022/01/15 02:53:09;;;;;;;27.23;16.85;;;;;;;0.93;78.42;100894.25;5019508;28;20041;-72
2022/01/15 02:55:35;;;;;;;23.17;16.30;;;;;;;0.88;78.96;100898.34;5018926;28;20061;-70
2022/01/15 02:58:01;;;;;;;32.58;15.43;;;;;;;0.76;78.61;100901.22;5018630;28;20048;-71
2022/01/15 03:00:27;;;;;;;28.30;17.08;;;;;;;0.80;79.01;100914.34;5018205;28;20332;-71
2022/01/15 03:02:53;;;;;;;32.85;20.50;;;;;;;0.50;79.92;100911.19;5018143;28;20053;-72
2022/01/15 03:05:20;;;;;;;24.02;15.70;;;;;;;0.88;79.03;100932.78;5017825;28;20080;-73
2022/01/15 03:07:46;;;;;;;26.35;15.80;;;;;;;0.81;79.40;100934.19;5018574;28;20053;-70
2022/01/15 03:10:12;;;;;;;31.60;19.08;;;;;;;0.84;79.02;100936.03;5016117;28;20042;-74
2022/01/15 03:12:37;;;;;;;28.17;15.85;;;;;;;0.89;78.59;100938.84;5019693;28;20092;-70
2022/01/15 03:15:05;;;;;;;29.50;18.63;;;;;;;0.96;78.94;100939.22;5017867;28;20108;-70
2022/01/15 03:17:32;;;;;;;22.20;15.05;;;;;;;0.92;78.62;100942.47;5017587;28;20516;-71
2022/01/15 03:19:58;;;;;;;25.88;17.08;;;;;;;0.94;78.76;100964.09;5015801;28;20136;-71
2022/01/15 03:22:23;;;;;;;29.52;20.25;;;;;;;1.01;79.53;100960.09;5016247;28;20477;-73
2022/01/15 03:24:50;;;;;;;25.33;19.02;;;;;;;0.89;78.84;100969.84;5013844;28;20050;-72
2022/01/15 03:27:16;;;;;;;29.80;16.73;;;;;;;0.99;78.61;100964.31;5017667;28;20017;-73
2022/01/15 03:29:42;;;;;;;23.35;16.15;;;;;;;0.89;78.71;100985.34;5018050;28;20449;-77
2022/01/15 03:32:08;;;;;;;27.00;17.67;;;;;;;0.55;79.50;100956.19;5017359;28;20144;-71
2022/01/15 03:34:33;;;;;;;28.83;20.55;;;;;;;0.56;79.98;100952.81;5016367;28;20160;-72
2022/01/15 03:36:59;;;;;;;32.50;20.08;;;;;;;0.73;79.60;100957.91;5017006;28;20042;-71
2022/01/15 03:39:24;;;;;;;26.13;16.83;;;;;;;0.97;78.91;100978.84;5017618;28;20041;-70
2022/01/15 03:41:50;;;;;;;21.98;14.85;;;;;;;0.86;79.11;100956.78;5017496;28;20042;-71
2022/01/15 03:44:15;;;;;;;26.17;14.88;;;;;;;0.89;79.44;100982.75;5018607;28;20065;-75
2022/01/15 03:46:41;;;;;;;24.02;16.02;;;;;;;0.92;78.50;100970.00;5018141;28;20046;-71
2022/01/15 03:49:06;;;;;;;23.15;15.00;;;;;;;0.71;79.12;100975.91;5017081;28;20131;-71
2022/01/15 03:51:32;;;;;;;25.23;15.25;;;;;;;1.04;78.54;100996.41;5018284;28;20268;-71
2022/01/15 03:53:57;;;;;;;25.40;16.92;;;;;;;1.20;78.31;100970.50;5018995;28;20037;-71
2022/01/15 03:56:23;;;;;;;23.90;15.70;;;;;;;1.13;78.54;100999.44;5016125;28;20038;-70
2022/01/15 03:58:48;;;;;;;23.13;14.50;;;;;;;0.79;78.77;101008.13;5015568;28;20061;-73
2022/01/15 04:01:14;;;;;;;27.98;19.95;;;;;;;0.91;78.87;100989.75;5017911;28;20044;-73
2022/01/15 04:03:39;;;;;;;22.40;14.15;;;;;;;1.27;77.79;100994.94;5016847;28;20042;-76
2022/01/15 04:06:05;;;;;;;31.00;20.92;;;;;;;1.32;77.45;101011.53;5017416;28;20083;-72
2022/01/15 04:08:30;;;;;;;26.02;16.85;;;;;;;1.25;77.85;101007.78;5016738;28;20425;-72
2022/01/15 04:10:56;;;;;;;24.23;15.63;;;;;;;0.86;78.40;100988.66;5017169;28;20117;-73
2022/01/15 04:13:22;;;;;;;31.30;19.10;;;;;;;1.01;78.33;101012.66;5016094;28;20034;-73
2022/01/15 04:15:51;;;;;;;25.95;15.73;;;;;;;0.71;78.75;100996.56;5017007;28;20038;-72
2022/01/15 04:18:18;;;;;;;24.05;18.85;;;;;;;0.47;79.45;100990.16;5016754;28;20033;-72
2022/01/15 04:20:43;;;;;;;28.27;21.63;;;;;;;0.78;79.55;101023.59;5016311;28;20030;-79
2022/01/15 04:23:08;;;;;;;22.13;14.50;;;;;;;0.65;79.57;101009.16;5017893;28;20092;-70
2022/01/15 04:25:34;;;;;;;19.15;13.93;;;;;;;0.84;78.91;101022.19;5010913;28;20104;-71
2022/01/15 04:28:02;;;;;;;25.70;14.15;;;;;;;0.49;80.13;101051.44;5019721;28;20041;-70
2022/01/15 04:30:28;;;;;;;25.55;15.02;;;;;;;1.01;79.14;101051.44;5020854;28;20068;-71
2022/01/15 04:32:53;;;;;;;31.55;18.55;;;;;;;0.92;78.87;101034.59;5017725;28;20545;-72
2022/01/15 04:35:19;;;;;;;31.17;19.17;;;;;;;0.77;78.88;101057.94;5019974;28;20466;-73
2022/01/15 04:37:48;;;;;;;23.27;14.15;;;;;;;0.48;80.63;101046.16;5021267;28;20465;-75
2022/01/15 04:40:15;;;;;;;24.73;14.25;;;;;;;0.90;79.07;101064.63;5020451;28;20122;-73
2022/01/15 04:42:41;;;;;;;29.20;18.58;;;;;;;1.02;78.42;101066.09;5018604;28;20061;-74
2022/01/15 04:45:07;;;;;;;24.13;16.15;;;;;;;1.00;78.29;101064.25;5021548;28;20061;-71
2022/01/15 04:47:34;;;;;;;25.40;14.93;;;;;;;0.36;80.33;101072.25;5018746;28;20049;-78
2022/01/15 04:49:59;;;;;;;20.80;14.18;;;;;;;0.74;79.20;101068.13;5020886;28;20059;-74
2022/01/15 04:52:25;;;;;;;21.35;14.95;;;;;;;0.83;78.90;101074.66;5019213;28;20037;-71
2022/01/15 04:54:51;;;;;;;28.98;14.48;;;;;;;0.95;78.17;101073.50;5019950;28;20055;-72
2022/01/15 04:57:17;;;;;;;26.77;16.25;;;;;;;0.76;78.64;101074.28;5018278;28;20502;-71
2022/01/15 04:59:42;;;;;;;25.38;15.50;;;;;;;0.88;78.50;101064.53;5020883;28;20041;-72
2022/01/15 05:02:08;;;;;;;29.15;14.90;;;;;;;0.69;78.69;101064.44;5019298;28;20045;-71
2022/01/15 05:04:33;;;;;;;23.88;15.05;;;;;;;0.69;78.66;101072.19;5020748;28;20128;-71
2022/01/15 05:06:59;;;;;;;24.92;14.38;;;;;;;0.60;78.73;101058.00;5023904;28;20033;-74
2022/01/15 05:09:24;;;;;;;22.92;14.38;;;;;;;0.67;78.73;101072.09;5020121;28;20033;-73
2022/01/15 05:12:02;;;;;;;23.08;14.73;;;;;;;1.04;77.29;101086.84;5021677;28;20069;-73
2022/01/15 05:14:28;;;;;;;21.85;14.77;;;;;;;0.89;77.00;101074.09;5020085;28;20508;-74
2022/01/15 05:16:54;;;;;;;24.55;14.30;;;;;;;1.13;76.63;101078.69;5020124;28;20025;-72
2022/01/15 05:19:20;;;;;;;22.45;14.85;;;;;;;1.27;76.24;101083.69;5020080;28;20049;-72
2022/01/15 05:21:46;;;;;;;17.88;11.68;;;;;;;1.51;75.13;101089.97;5019114;28;20456;-73
2022/01/15 05:24:11;;;;;;;24.60;13.35;;;;;;;1.27;75.56;101072.47;5018409;28;20037;-75
2022/01/15 05:26:37;;;;;;;19.50;13.68;;;;;;;1.29;75.48;101088.94;5017138;28;20380;-71
2022/01/15 05:29:03;;;;;;;22.55;15.57;;;;;;;1.34;75.75;101091.75;5018635;28;20076;-73
2022/01/15 05:31:28;;;;;;;24.10;15.60;;;;;;;1.30;75.35;101071.72;5021289;28;20417;-71
2022/01/15 05:33:54;;;;;;;25.70;17.20;;;;;;;1.17;75.77;101075.41;5020508;28;20052;-72
2022/01/15 05:36:20;;;;;;;20.13;14.75;;;;;;;1.26;75.67;101087.09;5018312;28;20117;-71
2022/01/15 05:38:46;;;;;;;22.50;14.15;;;;;;;1.31;76.00;101102.84;5020023;28;20097;-74
2022/01/15 05:41:12;;;;;;;19.98;14.55;;;;;;;1.34;75.53;101102.09;5018503;28;20545;-71
2022/01/15 05:43:37;;;;;;;22.67;15.38;;;;;;;1.42;75.29;101103.34;5020412;28;20068;-79
2022/01/15 05:46:03;;;;;;;23.38;15.77;;;;;;;1.66;74.20;101109.69;5020446;28;20136;-73
2022/01/15 05:48:28;;;;;;;17.02;11.45;;;;;;;1.60;74.52;101109.41;5019288;28;20176;-74
2022/01/15 05:50:54;;;;;;;22.67;14.20;;;;;;;1.71;73.72;101107.31;5020223;28;20037;-74
2022/01/15 05:53:19;;;;;;;15.38;11.02;;;;;;;1.88;72.87;101101.22;5017685;28;20049;-73
2022/01/15 05:55:45;;;;;;;19.27;11.25;;;;;;;2.00;72.14;101103.47;5017104;28;20128;-72
2022/01/15 05:58:10;;;;;;;26.67;18.63;;;;;;;1.89;72.24;101107.28;5019688;28;20037;-72
2022/01/15 06:00:36;;;;;;;26.27;16.65;;;;;;;1.67;73.40;101106.28;5018893;28;20550;-72
2022/01/15 06:03:02;;;;;;;25.83;18.77;;;;;;;1.69;73.16;101106.38;5018783;28;20155;-72
2022/01/15 06:05:27;;;;;;;20.17;13.18;;;;;;;1.89;72.57;101109.84;5017476;28;20529;-73
2022/01/15 06:07:53;;;;;;;26.92;16.48;;;;;;;1.78;72.28;101093.84;5018673;28;20029;-72
2022/01/15 06:10:18;;;;;;;15.98;10.82;;;;;;;1.89;71.35;101100.38;5018174;28;20053;-76
2022/01/15 06:12:44;;;;;;;16.98;10.80;;;;;;;2.34;69.82;101128.28;5017070;28;20045;-72
2022/01/15 06:15:14;;;;;;;22.50;16.27;;;;;;;1.75;72.23;101116.97;5018619;28;20045;-72
2022/01/15 06:17:41;;;;;;;21.15;14.40;;;;;;;2.07;70.86;101123.66;5019664;28;20025;-72
2022/01/15 06:20:08;;;;;;;25.85;11.63;;;;;;;1.77;72.18;101137.75;5015961;28;20093;-76
2022/01/15 06:22:34;;;;;;;17.00;14.05;;;;;;;1.59;73.61;101133.50;5018065;28;20064;-73
2022/01/15 06:24:59;;;;;;;23.58;17.08;;;;;;;1.86;72.61;101133.91;5013776;28;20409;-72
2022/01/15 06:27:25;;;;;;;37.97;27.77;;;;;;;1.80;72.31;101119.78;5018916;28;20412;-72
2022/01/15 06:29:50;;;;;;;28.98;19.00;;;;;;;1.81;72.28;101134.50;5019035;28;20108;-72
2022/01/15 06:32:16;;;;;;;23.58;15.10;;;;;;;1.97;72.32;101146.47;5019279;28;20041;-73
2022/01/15 06:34:41;;;;;;;17.98;12.38;;;;;;;2.06;71.81;101147.78;5018029;28;20057;-74
2022/01/15 06:37:07;;;;;;;23.60;13.65;;;;;;;2.22;70.98;101140.69;5019586;28;20029;-73
2022/01/15 06:39:33;;;;;;;26.05;15.52;;;;;;;2.31;71.23;101164.41;5018406;28;20083;-72
2022/01/15 06:42:00;;;;;;;23.52;15.73;;;;;;;2.27;71.68;101167.66;5017942;28;20077;-74
2022/01/15 06:44:25;;;;;;;20.50;13.25;;;;;;;2.18;71.67;101159.47;5018578;28;20497;-73
2022/01/15 06:46:51;;;;;;;24.13;13.95;;;;;;;2.13;72.01;101179.09;5017772;28;20056;-73
2022/01/15 06:49:16;;;;;;;21.88;12.95;;;;;;;2.40;71.58;101175.19;5017359;28;20045;-78
2022/01/15 06:51:42;;;;;;;22.33;16.10;;;;;;;2.30;71.69;101168.72;5018873;28;20052;-73
2022/01/15 06:54:09;;;;;;;21.08;15.65;;;;;;;2.37;71.76;101181.97;5018755;28;20032;-74
2022/01/15 06:56:35;;;;;;;31.52;16.98;;;;;;;2.39;72.08;101191.56;5018280;28;20056;-72
2022/01/15 06:59:01;;;;;;;20.98;15.18;;;;;;;2.46;71.62;101190.16;5017482;28;20481;-71
2022/01/15 07:01:26;;;;;;;21.85;14.65;;;;;;;2.54;71.74;101197.41;5018058;28;20120;-74
2022/01/15 07:03:52;;;;;;;26.83;16.67;;;;;;;2.53;71.52;101199.97;5017527;28;20124;-77
2022/01/15 07:06:17;;;;;;;24.98;17.30;;;;;;;2.56;71.63;101204.38;5016794;28;20021;-74
2022/01/15 07:08:42;;;;;;;23.83;16.50;;;;;;;2.59;71.22;101195.03;5018242;28;20358;-71
2022/01/15 07:11:08;;;;;;;23.15;16.85;;;;;;;2.37;71.67;101193.19;5017391;28;20049;-74
2022/01/15 07:13:33;;;;;;;24.98;17.85;;;;;;;2.48;71.75;101188.47;5016439;28;20071;-72
2022/01/15 07:16:00;;;;;;;23.15;17.45;;;;;;;2.71;71.31;101192.97;5017388;28;20060;-71
2022/01/15 07:18:25;;;;;;;27.92;18.40;;;;;;;2.72;71.14;101176.63;5017898;28;20423;-71
2022/01/15 07:20:51;;;;;;;19.02;14.68;;;;;;;2.71;70.59;101190.41;5016041;28;20037;-73
2022/01/15 07:23:17;;;;;;;35.83;18.48;;;;;;;2.72;70.37;101194.78;5018198;28;20040;-74
2022/01/15 07:25:43;;;;;;;24.50;16.30;;;;;;;2.86;70.37;101212.66;5012364;28;20037;-75
2022/01/15 07:28:08;;;;;;;23.08;16.38;;;;;;;2.81;70.25;101209.84;5018044;28;20048;-72
2022/01/15 07:30:35;;;;;;;24.67;18.23;;;;;;;2.83;70.26;101203.00;5016560;28;20486;-72
2022/01/15 07:33:00;;;;;;;28.70;16.80;;;;;;;2.93;70.57;101201.72;5017806;28;20029;-71
2022/01/15 07:35:26;;;;;;;25.55;18.20;;;;;;;2.82;70.56;101218.50;5016849;28;20053;-74
2022/01/15 07:37:51;;;;;;;28.73;17.90;;;;;;;2.94;70.14;101194.00;5017747;28;20477;-74
2022/01/15 07:40:17;;;;;;;27.58;18.42;;;;;;;3.10;70.11;101207.63;5018221;28;20331;-73
2022/01/15 07:42:44;;;;;;;29.42;20.20;;;;;;;2.81;70.40;101202.06;5016846;28;20049;-72
2022/01/15 07:45:15;;;;;;;28.20;18.65;;;;;;;3.21;69.90;101236.59;5016718;28;20152;-72
2022/01/15 07:47:42;;;;;;;25.80;18.83;;;;;;;3.20;69.39;101233.13;5018166;28;20045;-71
2022/01/15 07:50:23;;;;;;;28.50;20.60;;;;;;;3.36;69.67;101238.16;5017303;28;20052;-72
2022/01/15 07:52:48;;;;;;;22.10;15.52;;;;;;;3.42;68.82;101228.84;5015907;28;20136;-71
2022/01/15 07:55:14;;;;;;;24.15;17.42;;;;;;;3.61;69.24;101225.34;5017030;28;20053;-71
2022/01/15 07:57:43;;;;;;;23.05;15.80;;;;;;;3.78;67.85;101226.91;5017387;28;20053;-71
2022/01/15 08:00:13;;;;;;;21.55;16.30;;;;;;;3.63;68.11;101216.78;5015370;28;20556;-72
2022/01/15 08:02:38;;;;;;;25.02;17.38;;;;;;;3.61;67.79;101239.19;5017998;28;20040;-70
2022/01/15 08:05:05;;;;;;;23.70;16.85;;;;;;;3.79;66.93;101245.16;5020015;28;20053;-71
2022/01/15 08:07:30;;;;;;;26.80;17.58;;;;;;;3.83;67.28;101240.06;5021104;28;21466;-73
2022/01/15 08:09:56;;;;;;;24.50;17.20;;;;;;;4.04;66.55;101242.66;5022163;28;20386;-71
2022/01/15 08:12:23;;;;;;;25.23;16.52;;;;;;;3.89;66.78;101229.94;5020529;28;20363;-71
2022/01/15 08:14:50;;;;;;;31.42;18.50;;;;;;;4.12;66.38;101246.41;5021720;28;20476;-71
2022/01/15 08:17:16;;;;;;;28.63;17.83;;;;;;;4.14;66.67;101244.78;5022407;28;20053;-71
2022/01/15 08:19:41;;;;;;;24.63;15.82;;;;;;;4.09;66.56;101241.97;5021494;28;20124;-76
2022/01/15 08:22:07;;;;;;;25.88;17.02;;;;;;;4.09;66.26;101239.38;5020832;28;22265;-72
2022/01/15 08:24:33;;;;;;;23.48;16.05;;;;;;;4.14;66.36;101258.63;5023401;28;20045;-71
2022/01/15 08:26:58;;;;;;;33.13;18.95;;;;;;;4.06;66.93;101246.19;5018394;28;20033;-71
2022/01/15 08:29:23;;;;;;;25.58;17.00;;;;;;;4.58;65.79;101256.00;5022071;28;21098;-72
2022/01/15 08:33:59;;;;;;;27.77;15.80;;;;;;;4.55;65.92;101230.78;5048941;28;20615;-70
2022/01/15 08:36:32;;;;;;;24.27;16.67;;;;;;;4.68;65.13;101246.81;5021819;28;20439;-70
2022/01/15 08:38:58;;;;;;;24.67;14.98;;;;;;;4.56;64.73;101222.16;5023273;28;20029;-78
2022/01/15 08:41:24;;;;;;;24.33;16.02;;;;;;;4.77;64.23;101258.44;5016342;28;20053;-74
2022/01/15 08:43:50;;;;;;;19.70;15.48;;;;;;;4.92;64.21;101255.53;5014604;28;20129;-70
2022/01/15 08:46:18;;;;;;;16.08;12.40;;;;;;;5.00;63.85;101254.09;4990840;28;20137;-73
2022/01/15 08:48:44;;;;;;;18.95;14.77;;;;;;;5.08;62.89;101233.59;5010436;28;20702;-74
2022/01/15 08:51:10;;;;;;;22.20;14.70;;;;;;;5.05;62.88;101231.72;5053929;28;20036;-70
2022/01/15 08:53:35;;;;;;;23.13;15.70;;;;;;;5.21;63.16;101253.09;5016468;28;20109;-70
2022/01/15 08:56:03;;;;;;;22.13;14.02;;;;;;;5.40;62.63;101252.03;5010817;28;20076;-70
2022/01/15 08:58:29;;;;;;;21.88;14.20;;;;;;;5.41;61.73;101233.00;5008639;28;20480;-71
2022/01/15 09:00:55;;;;;;;21.75;15.20;;;;;;;5.45;61.80;101246.13;5008598;28;20132;-75
2022/01/15 09:03:22;;;;;;;21.65;13.85;;;;;;;5.52;61.74;101228.13;5011936;28;20029;-71
2022/01/15 09:05:50;;;;;;;20.52;13.80;;;;;;;5.52;61.03;101248.94;5008483;28;20095;-74
2022/01/15 09:08:17;;;;;;;20.98;14.75;;;;;;;5.59;60.28;101227.50;5009027;28;20041;-77
2022/01/15 09:10:43;;;;;;;19.10;12.18;;;;;;;5.64;60.10;101226.84;5010390;28;20157;-70
2022/01/15 09:13:09;;;;;;;23.88;13.57;;;;;;;5.72;59.94;101220.16;5010301;28;20529;-71
2022/01/15 09:15:38;;;;;;;26.02;14.10;;;;;;;5.95;59.39;101221.75;5010139;28;20046;-70
2022/01/15 09:18:04;;;;;;;21.30;13.65;;;;;;;6.09;58.96;101223.97;5008379;28;20066;-71
2022/01/15 09:20:30;;;;;;;22.10;13.45;;;;;;;5.75;59.23;101203.72;5008050;28;20046;-70
2022/01/15 09:22:56;;;;;;;16.83;12.23;;;;;;;6.12;59.02;101229.25;5006573;28;20071;-71
2022/01/15 09:32:51;;;;;;;21.50;15.38;;;;;;;6.18;58.63;101180.78;5016343;28;20061;-70
2022/01/15 09:35:22;;;;;;;17.95;13.30;;;;;;;6.51;57.71;101207.88;5027588;28;20049;-70
2022/01/15 09:37:52;;;;;;;22.25;13.73;;;;;;;6.43;57.62;101192.81;5036319;28;20033;-74
2022/01/15 09:40:19;;;;;;;21.30;13.10;;;;;;;6.30;57.61;101189.88;5034246;28;20049;-71
2022/01/15 09:42:47;;;;;;;18.80;11.93;;;;;;;6.44;57.97;101197.19;5029427;28;20042;-71
2022/01/15 09:45:14;;;;;;;19.67;13.15;;;;;;;6.52;57.82;101208.75;5029883;28;20481;-71
2022/01/15 09:47:42;;;;;;;17.33;12.02;;;;;;;6.53;57.59;101218.31;5023261;28;20067;-72
2022/01/15 09:50:15;;;;;;;18.90;12.27;;;;;;;6.70;56.41;101196.22;5011742;28;20041;-71
2022/01/15 09:52:41;;;;;;;15.52;11.82;;;;;;;6.55;56.50;101174.91;5030826;28;20041;-70
2022/01/15 09:55:42;;;;;;;19.10;14.02;;;;;;;6.93;57.08;101219.44;5011351;28;20113;-69
2022/01/15 09:58:07;;;;;;;17.45;13.13;;;;;;;6.69;57.09;101212.69;5032233;28;20025;-69
2022/01/15 10:00:36;;;;;;;21.80;12.27;;;;;;;6.80;56.48;101209.53;5041681;28;20417;-68
2022/01/15 10:03:02;;;;;;;19.35;12.45;;;;;;;6.92;55.83;101202.03;5014152;28;20095;-71
2022/01/15 10:05:28;;;;;;;17.55;11.85;;;;;;;6.81;55.64;101193.03;5031262;28;20385;-68
2022/01/15 10:08:00;;;;;;;19.92;13.80;;;;;;;6.88;55.34;101208.91;5019748;28;20045;-72
2022/01/15 10:10:28;;;;;;;31.50;14.18;;;;;;;6.67;56.66;101197.84;5009155;28;20104;-69
2022/01/15 10:12:54;;;;;;;21.13;13.75;;;;;;;7.01;55.72;101167.50;5038133;28;20034;-70
2022/01/15 10:18:44;;;;;;;22.10;14.43;;;;;;;6.87;55.50;101198.44;5034076;28;20053;-70
2022/01/15 10:21:13;;;;;;;22.30;14.25;;;;;;;6.95;55.53;101173.41;4997320;28;20042;-69
2022/01/15 10:23:57;;;;;;;15.65;11.90;;;;;;;6.97;56.21;101184.78;5021927;28;20072;-72
2022/01/15 10:26:26;;;;;;;22.77;13.32;;;;;;;6.48;56.65;101180.81;5032553;28;20050;-69
2022/01/15 10:28:59;;;;;;;14.77;11.15;;;;;;;6.05;56.60;101169.13;5034695;28;20047;-69
2022/01/15 10:31:26;;;;;;;16.98;12.50;;;;;;;6.02;57.16;101182.94;5036474;28;20102;-68
2022/01/15 10:33:52;;;;;;;14.23;10.55;;;;;;;6.61;54.64;101163.81;5018099;28;20124;-70
2022/01/15 10:36:39;;;;;;;20.00;12.73;;;;;;;7.07;53.04;101181.59;5014578;28;20478;-69
2022/01/15 10:39:17;;;;;;;17.23;11.40;;;;;;;6.75;51.49;101184.19;5029635;28;20500;-69
2022/01/15 10:41:43;;;;;;;67.32;49.80;;;;;;;7.22;50.72;101182.84;5014267;28;20082;-69
2022/01/15 10:44:29;;;;;;;141.20;97.90;;;;;;;7.75;47.04;101199.84;5029010;28;20069;-71
2022/01/15 10:47:15;;;;;;;17.42;12.30;;;;;;;7.98;44.42;101173.38;4996093;28;20191;-68
2022/01/15 10:49:42;;;;;;;10.32;7.13;;;;;;;8.13;43.17;101204.22;5023967;28;20054;-72
2022/01/15 10:52:13;;;;;;;20.45;9.90;;;;;;;8.38;42.79;101169.91;5021469;28;20033;-72
2022/01/15 10:55:00;;;;;;;20.08;10.52;;;;;;;7.55;42.50;101185.41;5025971;28;20086;-72
2022/01/15 10:57:31;;;;;;;10.82;6.70;;;;;;;8.31;41.74;101175.88;4992133;28;20044;-71
2022/01/15 11:00:08;;;;;;;14.15;9.00;;;;;;;8.59;40.48;101164.28;5018666;28;20067;-71
2022/01/15 11:02:35;;;;;;;12.68;7.28;;;;;;;8.19;41.90;101168.66;5007576;28;20111;-71
2022/01/15 11:05:03;;;;;;;13.77;8.30;;;;;;;7.59;42.28;101175.09;5030402;28;20056;-73
2022/01/15 11:07:36;;;;;;;13.02;8.43;;;;;;;8.14;41.69;101161.53;5042676;28;20041;-73
2022/01/15 11:10:42;;;;;;;15.77;8.88;;;;;;;8.56;41.83;101147.63;5022036;28;20116;-72
2022/01/15 11:13:42;;;;;;;12.82;8.30;;;;;;;8.58;40.49;101180.81;5023939;28;21770;-70
2022/01/15 11:17:02;;;;;;;12.05;7.93;;;;;;;8.65;40.45;101153.91;5034328;28;20057;-71
2022/01/15 11:19:29;;;;;;;10.40;7.22;;;;;;;8.93;38.88;101159.69;5026231;28;20034;-69
2022/01/15 11:22:01;;;;;;;17.63;7.05;;;;;;;8.55;41.69;101156.34;5033301;28;20059;-71
2022/01/15 11:24:26;;;;;;;11.30;7.28;;;;;;;9.08;40.54;101165.22;5021769;28;20049;-70
2022/01/15 11:26:55;;;;;;;12.73;8.20;;;;;;;9.35;39.06;101157.81;5028684;28;20500;-71
2022/01/15 11:29:21;;;;;;;10.30;5.82;;;;;;;8.68;39.32;101133.91;5027469;28;20370;-70
2022/01/15 11:31:51;;;;;;;13.75;8.30;;;;;;;9.14;39.65;101177.53;5032010;28;20046;-70
2022/01/15 11:34:21;;;;;;;12.40;6.43;;;;;;;9.13;38.98;101138.22;5036516;28;20044;-70
2022/01/15 11:36:47;;;;;;;13.02;7.45;;;;;;;9.08;39.90;101162.59;5012374;28;20040;-70
2022/01/15 11:39:21;;;;;;;14.10;7.57;;;;;;;9.11;39.41;101135.59;5007354;28;20049;-70
2022/01/15 11:41:53;;;;;;;13.00;6.25;;;;;;;8.91;38.24;101134.34;5031221;28;20091;-70
2022/01/15 11:44:35;;;;;;;11.13;7.20;;;;;;;9.14;38.01;101168.81;5032021;28;20053;-71
2022/01/15 11:47:17;;;;;;;8.23;5.90;;;;;;;8.91;38.23;101124.75;5033678;28;20049;-71
2022/01/15 11:49:49;;;;;;;8.73;5.75;;;;;;;8.83;37.97;101147.28;5031206;28;20071;-71